sensor_id;sensor_type;location;lat;lon;timestamp;P1;durP1;ratioP1;P2;durP2;ratioP2
10725;SDS011;5414;59.782;16.378;2023-04-15T00:01:41;5.57;;;3.50;;
10725;SDS011;5414;59.782;16.378;2023-04-15T00:04:07;4.37;;;3.97;;
10725;SDS011;5414;59.782;16.378;2023-04-15T00:06:33;5.93;;;3.93;;
10725;SDS011;5414;59.782;16.378;2023-04-15T00:08:59;6.97;;;4.13;;
10725;SDS011;5414;59.782;16.378;2023-04-15T00:11:25;5.00;;;3.70;;
10725;SDS011;5414;59.782;16.378;2023-04-15T00:13:51;6.83;;;4.23;;
10725;SDS011;5414;59.782;16.378;2023-04-15T00:16:18;5.47;;;3.80;;
10725;SDS011;5414;59.782;16.378;2023-04-15T00:18:44;6.37;;;3.90;;
10725;SDS011;5414;59.782;16.378;2023-04-15T00:21:10;6.47;;;4.27;;
10725;SDS011;5414;59.782;16.378;2023-04-15T00:23:36;4.83;;;3.87;;
10725;SDS011;5414;59.782;16.378;2023-04-15T00:26:02;6.07;;;4.30;;
10725;SDS011;5414;59.782;16.378;2023-04-15T00:28:28;6.73;;;4.33;;
10725;SDS011;5414;59.782;16.378;2023-04-15T00:30:55;6.70;;;3.67;;
10725;SDS011;5414;59.782;16.378;2023-04-15T00:33:21;4.20;;;3.73;;
10725;SDS011;5414;59.782;16.378;2023-04-15T00:35:47;6.10;;;3.97;;
10725;SDS011;5414;59.782;16.378;2023-04-15T00:38:13;6.10;;;3.90;;
10725;SDS011;5414;59.782;16.378;2023-04-15T00:40:39;6.57;;;4.37;;
10725;SDS011;5414;59.782;16.378;2023-04-15T00:43:06;6.07;;;3.93;;
10725;SDS011;5414;59.782;16.378;2023-04-15T00:45:32;5.93;;;4.07;;
10725;SDS011;5414;59.782;16.378;2023-04-15T00:47:58;6.00;;;3.97;;
10725;SDS011;5414;59.782;16.378;2023-04-15T00:50:24;5.90;;;3.83;;
10725;SDS011;5414;59.782;16.378;2023-04-15T00:52:50;4.90;;;3.80;;
10725;SDS011;5414;59.782;16.378;2023-04-15T00:55:16;4.73;;;4.10;;
10725;SDS011;5414;59.782;16.378;2023-04-15T00:57:43;5.87;;;4.00;;
10725;SDS011;5414;59.782;16.378;2023-04-15T01:00:09;4.20;;;3.77;;
10725;SDS011;5414;59.782;16.378;2023-04-15T01:02:36;6.03;;;3.50;;
10725;SDS011;5414;59.782;16.378;2023-04-15T01:05:03;5.23;;;3.47;;
10725;SDS011;5414;59.782;16.378;2023-04-15T01:07:29;5.83;;;3.93;;
10725;SDS011;5414;59.782;16.378;2023-04-15T01:09:56;7.17;;;3.70;;
10725;SDS011;5414;59.782;16.378;2023-04-15T01:12:22;5.13;;;3.80;;
10725;SDS011;5414;59.782;16.378;2023-04-15T01:14:49;4.87;;;3.50;;
10725;SDS011;5414;59.782;16.378;2023-04-15T01:17:15;5.27;;;3.67;;
10725;SDS011;5414;59.782;16.378;2023-04-15T01:19:42;4.73;;;3.77;;
10725;SDS011;5414;59.782;16.378;2023-04-15T01:22:08;5.73;;;3.97;;
10725;SDS011;5414;59.782;16.378;2023-04-15T01:24:34;6.53;;;3.80;;
10725;SDS011;5414;59.782;16.378;2023-04-15T01:27:01;5.57;;;3.83;;
10725;SDS011;5414;59.782;16.378;2023-04-15T01:29:29;5.13;;;3.47;;
10725;SDS011;5414;59.782;16.378;2023-04-15T01:31:55;6.37;;;4.40;;
10725;SDS011;5414;59.782;16.378;2023-04-15T01:34:21;5.17;;;3.87;;
10725;SDS011;5414;59.782;16.378;2023-04-15T01:36:47;5.70;;;3.33;;
10725;SDS011;5414;59.782;16.378;2023-04-15T01:39:13;4.37;;;3.47;;
10725;SDS011;5414;59.782;16.378;2023-04-15T01:41:40;6.27;;;4.30;;
10725;SDS011;5414;59.782;16.378;2023-04-15T01:44:06;6.07;;;4.03;;
10725;SDS011;5414;59.782;16.378;2023-04-15T01:46:32;5.43;;;3.70;;
10725;SDS011;5414;59.782;16.378;2023-04-15T01:48:59;6.23;;;3.60;;
10725;SDS011;5414;59.782;16.378;2023-04-15T01:51:25;6.57;;;4.20;;
10725;SDS011;5414;59.782;16.378;2023-04-15T01:53:51;7.13;;;3.87;;
10725;SDS011;5414;59.782;16.378;2023-04-15T01:56:20;4.77;;;3.27;;
10725;SDS011;5414;59.782;16.378;2023-04-15T01:58:48;5.30;;;3.90;;
10725;SDS011;5414;59.782;16.378;2023-04-15T02:01:14;7.10;;;3.83;;
10725;SDS011;5414;59.782;16.378;2023-04-15T02:03:40;5.33;;;4.03;;
10725;SDS011;5414;59.782;16.378;2023-04-15T02:06:07;4.80;;;3.80;;
10725;SDS011;5414;59.782;16.378;2023-04-15T02:08:33;6.50;;;4.00;;
10725;SDS011;5414;59.782;16.378;2023-04-15T02:10:59;4.90;;;3.43;;
10725;SDS011;5414;59.782;16.378;2023-04-15T02:13:25;4.73;;;3.67;;
10725;SDS011;5414;59.782;16.378;2023-04-15T02:15:51;4.90;;;3.70;;
10725;SDS011;5414;59.782;16.378;2023-04-15T02:18:17;5.43;;;3.90;;
10725;SDS011;5414;59.782;16.378;2023-04-15T02:20:43;6.60;;;3.80;;
10725;SDS011;5414;59.782;16.378;2023-04-15T02:23:10;5.83;;;3.70;;
10725;SDS011;5414;59.782;16.378;2023-04-15T02:25:37;5.27;;;4.03;;
10725;SDS011;5414;59.782;16.378;2023-04-15T02:28:05;6.83;;;3.87;;
10725;SDS011;5414;59.782;16.378;2023-04-15T02:30:32;4.03;;;3.60;;
10725;SDS011;5414;59.782;16.378;2023-04-15T02:32:59;5.13;;;3.30;;
10725;SDS011;5414;59.782;16.378;2023-04-15T02:35:25;4.07;;;3.67;;
10725;SDS011;5414;59.782;16.378;2023-04-15T02:37:51;6.30;;;3.70;;
10725;SDS011;5414;59.782;16.378;2023-04-15T02:40:18;4.37;;;3.40;;
10725;SDS011;5414;59.782;16.378;2023-04-15T02:42:44;6.80;;;3.80;;
10725;SDS011;5414;59.782;16.378;2023-04-15T02:45:10;6.03;;;3.90;;
10725;SDS011;5414;59.782;16.378;2023-04-15T02:47:37;5.20;;;3.80;;
10725;SDS011;5414;59.782;16.378;2023-04-15T02:50:07;5.07;;;3.73;;
10725;SDS011;5414;59.782;16.378;2023-04-15T02:52:33;6.63;;;3.20;;
10725;SDS011;5414;59.782;16.378;2023-04-15T02:54:59;5.33;;;3.57;;
10725;SDS011;5414;59.782;16.378;2023-04-15T02:57:26;6.50;;;3.40;;
10725;SDS011;5414;59.782;16.378;2023-04-15T02:59:53;4.27;;;3.50;;
10725;SDS011;5414;59.782;16.378;2023-04-15T03:02:19;6.97;;;3.73;;
10725;SDS011;5414;59.782;16.378;2023-04-15T03:04:45;5.90;;;3.57;;
10725;SDS011;5414;59.782;16.378;2023-04-15T03:07:11;4.57;;;3.13;;
10725;SDS011;5414;59.782;16.378;2023-04-15T03:09:37;5.97;;;3.33;;
10725;SDS011;5414;59.782;16.378;2023-04-15T03:12:05;5.20;;;3.50;;
10725;SDS011;5414;59.782;16.378;2023-04-15T03:14:31;6.37;;;3.43;;
10725;SDS011;5414;59.782;16.378;2023-04-15T03:16:57;5.03;;;3.13;;
10725;SDS011;5414;59.782;16.378;2023-04-15T03:19:23;5.40;;;3.30;;
10725;SDS011;5414;59.782;16.378;2023-04-15T03:21:49;6.33;;;3.70;;
10725;SDS011;5414;59.782;16.378;2023-04-15T03:24:16;6.77;;;3.97;;
10725;SDS011;5414;59.782;16.378;2023-04-15T03:26:42;6.57;;;3.77;;
10725;SDS011;5414;59.782;16.378;2023-04-15T03:29:08;4.73;;;3.50;;
10725;SDS011;5414;59.782;16.378;2023-04-15T03:31:34;5.93;;;3.53;;
10725;SDS011;5414;59.782;16.378;2023-04-15T03:34:00;6.57;;;3.60;;
10725;SDS011;5414;59.782;16.378;2023-04-15T03:36:27;5.83;;;3.73;;
10725;SDS011;5414;59.782;16.378;2023-04-15T03:38:56;6.07;;;3.43;;
10725;SDS011;5414;59.782;16.378;2023-04-15T03:41:22;4.70;;;3.50;;
10725;SDS011;5414;59.782;16.378;2023-04-15T03:43:48;8.43;;;4.07;;
10725;SDS011;5414;59.782;16.378;2023-04-15T03:46:16;6.93;;;3.63;;
10725;SDS011;5414;59.782;16.378;2023-04-15T03:48:42;4.80;;;3.70;;
10725;SDS011;5414;59.782;16.378;2023-04-15T03:51:08;7.07;;;3.67;;
10725;SDS011;5414;59.782;16.378;2023-04-15T03:53:34;7.10;;;3.70;;
10725;SDS011;5414;59.782;16.378;2023-04-15T03:56:00;6.40;;;3.63;;
10725;SDS011;5414;59.782;16.378;2023-04-15T03:58:26;5.37;;;3.70;;
10725;SDS011;5414;59.782;16.378;2023-04-15T04:00:52;5.13;;;3.80;;
10725;SDS011;5414;59.782;16.378;2023-04-15T04:03:19;7.00;;;3.90;;
10725;SDS011;5414;59.782;16.378;2023-04-15T04:05:45;4.60;;;3.80;;
10725;SDS011;5414;59.782;16.378;2023-04-15T04:08:11;5.53;;;3.40;;
10725;SDS011;5414;59.782;16.378;2023-04-15T04:10:41;6.33;;;3.80;;
10725;SDS011;5414;59.782;16.378;2023-04-15T04:13:07;5.80;;;3.50;;
10725;SDS011;5414;59.782;16.378;2023-04-15T04:15:33;6.53;;;4.03;;
10725;SDS011;5414;59.782;16.378;2023-04-15T04:17:59;6.10;;;3.50;;
10725;SDS011;5414;59.782;16.378;2023-04-15T04:20:25;5.27;;;3.57;;
10725;SDS011;5414;59.782;16.378;2023-04-15T04:22:51;4.73;;;3.20;;
10725;SDS011;5414;59.782;16.378;2023-04-15T04:25:17;5.83;;;3.43;;
10725;SDS011;5414;59.782;16.378;2023-04-15T04:27:43;4.50;;;3.23;;
10725;SDS011;5414;59.782;16.378;2023-04-15T04:30:10;4.43;;;2.93;;
10725;SDS011;5414;59.782;16.378;2023-04-15T04:32:36;3.90;;;3.27;;
10725;SDS011;5414;59.782;16.378;2023-04-15T04:35:03;5.43;;;3.57;;
10725;SDS011;5414;59.782;16.378;2023-04-15T04:37:29;3.97;;;3.40;;
10725;SDS011;5414;59.782;16.378;2023-04-15T04:39:55;4.53;;;3.50;;
10725;SDS011;5414;59.782;16.378;2023-04-15T04:42:21;6.83;;;3.40;;
10725;SDS011;5414;59.782;16.378;2023-04-15T04:44:47;5.13;;;3.53;;
10725;SDS011;5414;59.782;16.378;2023-04-15T04:47:13;4.83;;;3.37;;
10725;SDS011;5414;59.782;16.378;2023-04-15T04:49:39;6.37;;;3.30;;
10725;SDS011;5414;59.782;16.378;2023-04-15T04:52:05;4.33;;;3.37;;
10725;SDS011;5414;59.782;16.378;2023-04-15T04:54:32;5.63;;;3.50;;
10725;SDS011;5414;59.782;16.378;2023-04-15T04:56:58;5.17;;;3.40;;
10725;SDS011;5414;59.782;16.378;2023-04-15T04:59:24;4.17;;;3.50;;
10725;SDS011;5414;59.782;16.378;2023-04-15T05:01:50;6.07;;;3.40;;
10725;SDS011;5414;59.782;16.378;2023-04-15T05:04:17;4.33;;;3.27;;
10725;SDS011;5414;59.782;16.378;2023-04-15T05:06:43;5.97;;;3.90;;
10725;SDS011;5414;59.782;16.378;2023-04-15T05:09:09;4.60;;;3.20;;
10725;SDS011;5414;59.782;16.378;2023-04-15T05:11:35;5.47;;;3.70;;
10725;SDS011;5414;59.782;16.378;2023-04-15T05:14:01;4.87;;;3.50;;
10725;SDS011;5414;59.782;16.378;2023-04-15T05:16:27;5.70;;;3.57;;
10725;SDS011;5414;59.782;16.378;2023-04-15T05:18:53;6.13;;;3.80;;
10725;SDS011;5414;59.782;16.378;2023-04-15T05:21:19;4.90;;;3.67;;
10725;SDS011;5414;59.782;16.378;2023-04-15T05:23:45;6.90;;;3.80;;
10725;SDS011;5414;59.782;16.378;2023-04-15T05:26:11;4.97;;;3.10;;
10725;SDS011;5414;59.782;16.378;2023-04-15T05:28:37;4.53;;;3.40;;
10725;SDS011;5414;59.782;16.378;2023-04-15T05:31:03;7.83;;;3.80;;
10725;SDS011;5414;59.782;16.378;2023-04-15T05:33:30;6.37;;;3.20;;
10725;SDS011;5414;59.782;16.378;2023-04-15T05:35:56;5.03;;;3.20;;
10725;SDS011;5414;59.782;16.378;2023-04-15T05:38:22;5.43;;;3.43;;
10725;SDS011;5414;59.782;16.378;2023-04-15T05:40:48;6.27;;;3.33;;
10725;SDS011;5414;59.782;16.378;2023-04-15T05:43:14;5.93;;;3.53;;
10725;SDS011;5414;59.782;16.378;2023-04-15T05:45:40;6.37;;;3.40;;
10725;SDS011;5414;59.782;16.378;2023-04-15T05:48:06;4.57;;;3.33;;
10725;SDS011;5414;59.782;16.378;2023-04-15T05:50:32;4.20;;;3.10;;
10725;SDS011;5414;59.782;16.378;2023-04-15T05:52:58;6.43;;;3.37;;
10725;SDS011;5414;59.782;16.378;2023-04-15T05:55:25;4.13;;;3.20;;
10725;SDS011;5414;59.782;16.378;2023-04-15T05:57:51;6.47;;;3.30;;
10725;SDS011;5414;59.782;16.378;2023-04-15T06:00:17;4.20;;;3.20;;
10725;SDS011;5414;59.782;16.378;2023-04-15T06:02:44;5.30;;;3.37;;
10725;SDS011;5414;59.782;16.378;2023-04-15T06:05:10;6.10;;;3.53;;
10725;SDS011;5414;59.782;16.378;2023-04-15T06:07:36;4.47;;;3.50;;
10725;SDS011;5414;59.782;16.378;2023-04-15T06:10:03;6.23;;;3.30;;
10725;SDS011;5414;59.782;16.378;2023-04-15T06:12:29;3.30;;;2.93;;
10725;SDS011;5414;59.782;16.378;2023-04-15T06:14:55;5.80;;;3.33;;
10725;SDS011;5414;59.782;16.378;2023-04-15T06:17:22;6.43;;;3.30;;
10725;SDS011;5414;59.782;16.378;2023-04-15T06:19:48;4.20;;;3.27;;
10725;SDS011;5414;59.782;16.378;2023-04-15T06:22:19;6.60;;;3.43;;
10725;SDS011;5414;59.782;16.378;2023-04-15T06:24:45;6.13;;;3.40;;
10725;SDS011;5414;59.782;16.378;2023-04-15T06:27:11;3.93;;;3.37;;
10725;SDS011;5414;59.782;16.378;2023-04-15T06:29:37;5.83;;;3.23;;
10725;SDS011;5414;59.782;16.378;2023-04-15T06:32:03;4.20;;;3.43;;
10725;SDS011;5414;59.782;16.378;2023-04-15T06:34:29;3.93;;;2.90;;
10725;SDS011;5414;59.782;16.378;2023-04-15T06:36:55;4.97;;;3.43;;
10725;SDS011;5414;59.782;16.378;2023-04-15T06:39:21;5.20;;;3.23;;
10725;SDS011;5414;59.782;16.378;2023-04-15T06:41:47;3.63;;;2.93;;
10725;SDS011;5414;59.782;16.378;2023-04-15T06:44:13;3.93;;;3.20;;
10725;SDS011;5414;59.782;16.378;2023-04-15T06:46:40;5.17;;;3.17;;
10725;SDS011;5414;59.782;16.378;2023-04-15T06:49:06;4.73;;;3.20;;
10725;SDS011;5414;59.782;16.378;2023-04-15T06:51:33;4.63;;;3.23;;
10725;SDS011;5414;59.782;16.378;2023-04-15T06:53:59;4.37;;;3.20;;
10725;SDS011;5414;59.782;16.378;2023-04-15T06:56:26;4.30;;;3.23;;
10725;SDS011;5414;59.782;16.378;2023-04-15T06:58:52;7.97;;;3.57;;
10725;SDS011;5414;59.782;16.378;2023-04-15T07:01:18;5.03;;;3.37;;
10725;SDS011;5414;59.782;16.378;2023-04-15T07:03:45;3.70;;;3.17;;
10725;SDS011;5414;59.782;16.378;2023-04-15T07:06:11;6.47;;;3.30;;
10725;SDS011;5414;59.782;16.378;2023-04-15T07:08:37;6.03;;;3.40;;
10725;SDS011;5414;59.782;16.378;2023-04-15T07:11:03;4.00;;;3.33;;
10725;SDS011;5414;59.782;16.378;2023-04-15T07:13:30;3.77;;;3.10;;
10725;SDS011;5414;59.782;16.378;2023-04-15T07:15:56;5.03;;;3.47;;
10725;SDS011;5414;59.782;16.378;2023-04-15T07:18:22;4.53;;;3.20;;
10725;SDS011;5414;59.782;16.378;2023-04-15T07:20:48;3.63;;;3.17;;
10725;SDS011;5414;59.782;16.378;2023-04-15T07:23:15;6.70;;;3.23;;
10725;SDS011;5414;59.782;16.378;2023-04-15T07:25:42;4.67;;;3.30;;
10725;SDS011;5414;59.782;16.378;2023-04-15T07:28:08;4.60;;;3.20;;
10725;SDS011;5414;59.782;16.378;2023-04-15T07:30:34;4.13;;;3.40;;
10725;SDS011;5414;59.782;16.378;2023-04-15T07:33:00;3.50;;;3.20;;
10725;SDS011;5414;59.782;16.378;2023-04-15T07:35:27;3.67;;;2.80;;
10725;SDS011;5414;59.782;16.378;2023-04-15T07:37:53;6.60;;;3.10;;
10725;SDS011;5414;59.782;16.378;2023-04-15T07:40:20;3.10;;;2.80;;
10725;SDS011;5414;59.782;16.378;2023-04-15T07:42:46;4.87;;;3.20;;
10725;SDS011;5414;59.782;16.378;2023-04-15T07:45:13;4.43;;;2.93;;
10725;SDS011;5414;59.782;16.378;2023-04-15T07:47:39;6.27;;;3.13;;
10725;SDS011;5414;59.782;16.378;2023-04-15T07:50:06;4.83;;;3.00;;
10725;SDS011;5414;59.782;16.378;2023-04-15T07:52:33;3.50;;;3.00;;
10725;SDS011;5414;59.782;16.378;2023-04-15T07:55:04;4.63;;;3.07;;
10725;SDS011;5414;59.782;16.378;2023-04-15T07:57:31;4.70;;;3.17;;
10725;SDS011;5414;59.782;16.378;2023-04-15T07:59:57;3.77;;;2.80;;
10725;SDS011;5414;59.782;16.378;2023-04-15T08:02:23;3.43;;;3.10;;
10725;SDS011;5414;59.782;16.378;2023-04-15T08:04:49;3.53;;;2.60;;
10725;SDS011;5414;59.782;16.378;2023-04-15T08:07:15;5.60;;;3.60;;
10725;SDS011;5414;59.782;16.378;2023-04-15T08:09:42;3.27;;;2.97;;
10725;SDS011;5414;59.782;16.378;2023-04-15T08:12:08;3.60;;;3.00;;
10725;SDS011;5414;59.782;16.378;2023-04-15T08:14:37;3.47;;;3.13;;
10725;SDS011;5414;59.782;16.378;2023-04-15T08:17:03;5.17;;;3.00;;
10725;SDS011;5414;59.782;16.378;2023-04-15T08:19:29;4.47;;;3.10;;
10725;SDS011;5414;59.782;16.378;2023-04-15T08:21:55;4.50;;;3.07;;
10725;SDS011;5414;59.782;16.378;2023-04-15T08:24:22;5.87;;;2.90;;
10725;SDS011;5414;59.782;16.378;2023-04-15T08:26:48;4.93;;;3.00;;
10725;SDS011;5414;59.782;16.378;2023-04-15T08:29:14;4.30;;;2.97;;
10725;SDS011;5414;59.782;16.378;2023-04-15T08:31:40;3.87;;;2.87;;
10725;SDS011;5414;59.782;16.378;2023-04-15T08:34:06;3.40;;;2.67;;
10725;SDS011;5414;59.782;16.378;2023-04-15T08:36:33;3.93;;;3.13;;
10725;SDS011;5414;59.782;16.378;2023-04-15T08:38:59;3.40;;;3.00;;
10725;SDS011;5414;59.782;16.378;2023-04-15T08:41:26;3.50;;;3.20;;
10725;SDS011;5414;59.782;16.378;2023-04-15T08:43:58;4.30;;;3.40;;
10725;SDS011;5414;59.782;16.378;2023-04-15T08:46:26;3.87;;;3.17;;
10725;SDS011;5414;59.782;16.378;2023-04-15T08:48:54;4.43;;;3.10;;
10725;SDS011;5414;59.782;16.378;2023-04-15T08:51:21;4.73;;;3.30;;
10725;SDS011;5414;59.782;16.378;2023-04-15T08:53:47;4.20;;;3.23;;
10725;SDS011;5414;59.782;16.378;2023-04-15T08:56:14;3.40;;;3.07;;
10725;SDS011;5414;59.782;16.378;2023-04-15T08:58:43;3.73;;;3.23;;
10725;SDS011;5414;59.782;16.378;2023-04-15T09:01:13;3.57;;;3.00;;
10725;SDS011;5414;59.782;16.378;2023-04-15T09:03:39;3.37;;;3.07;;
10725;SDS011;5414;59.782;16.378;2023-04-15T09:06:05;3.97;;;2.90;;
10725;SDS011;5414;59.782;16.378;2023-04-15T09:08:32;4.07;;;3.27;;
10725;SDS011;5414;59.782;16.378;2023-04-15T09:11:03;3.93;;;2.97;;
10725;SDS011;5414;59.782;16.378;2023-04-15T09:13:30;3.10;;;2.80;;
10725;SDS011;5414;59.782;16.378;2023-04-15T09:15:56;3.70;;;2.80;;
10725;SDS011;5414;59.782;16.378;2023-04-15T09:18:28;3.70;;;2.87;;
10725;SDS011;5414;59.782;16.378;2023-04-15T09:20:55;2.93;;;2.70;;
10725;SDS011;5414;59.782;16.378;2023-04-15T09:23:21;3.87;;;2.87;;
10725;SDS011;5414;59.782;16.378;2023-04-15T09:25:47;3.73;;;3.00;;
10725;SDS011;5414;59.782;16.378;2023-04-15T09:28:14;3.90;;;2.83;;
10725;SDS011;5414;59.782;16.378;2023-04-15T09:30:41;4.97;;;3.10;;
10725;SDS011;5414;59.782;16.378;2023-04-15T09:33:13;3.53;;;2.90;;
10725;SDS011;5414;59.782;16.378;2023-04-15T09:35:39;2.90;;;2.60;;
10725;SDS011;5414;59.782;16.378;2023-04-15T09:38:06;3.13;;;2.53;;
10725;SDS011;5414;59.782;16.378;2023-04-15T09:40:38;3.60;;;2.87;;
10725;SDS011;5414;59.782;16.378;2023-04-15T09:43:04;3.37;;;3.07;;
10725;SDS011;5414;59.782;16.378;2023-04-15T09:45:31;3.10;;;2.80;;
10725;SDS011;5414;59.782;16.378;2023-04-15T09:47:58;4.47;;;3.07;;
10725;SDS011;5414;59.782;16.378;2023-04-15T09:50:27;2.87;;;2.60;;
10725;SDS011;5414;59.782;16.378;2023-04-15T09:52:54;3.67;;;2.93;;
10725;SDS011;5414;59.782;16.378;2023-04-15T09:55:20;3.47;;;2.73;;
10725;SDS011;5414;59.782;16.378;2023-04-15T09:57:46;7.30;;;3.33;;
10725;SDS011;5414;59.782;16.378;2023-04-15T10:00:12;3.13;;;2.83;;
10725;SDS011;5414;59.782;16.378;2023-04-15T10:02:39;3.03;;;2.70;;
10725;SDS011;5414;59.782;16.378;2023-04-15T10:05:13;3.30;;;3.00;;
10725;SDS011;5414;59.782;16.378;2023-04-15T10:07:40;3.17;;;2.80;;
10725;SDS011;5414;59.782;16.378;2023-04-15T10:10:07;3.20;;;2.90;;
10725;SDS011;5414;59.782;16.378;2023-04-15T10:12:33;3.47;;;3.17;;
10725;SDS011;5414;59.782;16.378;2023-04-15T10:15:04;5.13;;;2.60;;
10725;SDS011;5414;59.782;16.378;2023-04-15T10:17:32;5.03;;;2.90;;
10725;SDS011;5414;59.782;16.378;2023-04-15T10:20:02;7.10;;;3.03;;
10725;SDS011;5414;59.782;16.378;2023-04-15T10:22:29;3.10;;;2.80;;
10725;SDS011;5414;59.782;16.378;2023-04-15T10:24:55;3.97;;;2.83;;
10725;SDS011;5414;59.782;16.378;2023-04-15T10:27:22;3.23;;;2.60;;
10725;SDS011;5414;59.782;16.378;2023-04-15T10:29:49;3.97;;;2.87;;
10725;SDS011;5414;59.782;16.378;2023-04-15T10:32:19;2.70;;;2.50;;
10725;SDS011;5414;59.782;16.378;2023-04-15T10:34:49;3.20;;;2.90;;
10725;SDS011;5414;59.782;16.378;2023-04-15T10:37:19;3.90;;;3.60;;
10725;SDS011;5414;59.782;16.378;2023-04-15T10:39:46;4.90;;;3.90;;
10725;SDS011;5414;59.782;16.378;2023-04-15T10:42:13;4.17;;;3.10;;
10725;SDS011;5414;59.782;16.378;2023-04-15T10:44:43;3.50;;;3.00;;
10725;SDS011;5414;59.782;16.378;2023-04-15T10:47:13;3.70;;;2.80;;
10725;SDS011;5414;59.782;16.378;2023-04-15T10:49:43;5.00;;;3.80;;
10725;SDS011;5414;59.782;16.378;2023-04-15T10:52:10;3.47;;;2.77;;
10725;SDS011;5414;59.782;16.378;2023-04-15T10:54:36;2.90;;;2.60;;
10725;SDS011;5414;59.782;16.378;2023-04-15T10:59:30;3.83;;;3.20;;
10725;SDS011;5414;59.782;16.378;2023-04-15T11:02:01;3.13;;;2.50;;
10725;SDS011;5414;59.782;16.378;2023-04-15T11:07:12;2.90;;;2.57;;
10725;SDS011;5414;59.782;16.378;2023-04-15T11:09:38;3.00;;;2.80;;
10725;SDS011;5414;59.782;16.378;2023-04-15T11:12:08;4.10;;;2.83;;
10725;SDS011;5414;59.782;16.378;2023-04-15T11:14:38;4.50;;;3.20;;
10725;SDS011;5414;59.782;16.378;2023-04-15T11:17:05;4.93;;;2.83;;
10725;SDS011;5414;59.782;16.378;2023-04-15T11:19:36;3.87;;;2.90;;
10725;SDS011;5414;59.782;16.378;2023-04-15T11:22:06;4.00;;;3.10;;
10725;SDS011;5414;59.782;16.378;2023-04-15T11:24:32;3.90;;;3.07;;
10725;SDS011;5414;59.782;16.378;2023-04-15T11:26:58;2.90;;;2.50;;
10725;SDS011;5414;59.782;16.378;2023-04-15T11:29:30;3.30;;;2.73;;
10725;SDS011;5414;59.782;16.378;2023-04-15T11:32:08;3.20;;;2.57;;
10725;SDS011;5414;59.782;16.378;2023-04-15T11:34:34;3.30;;;2.77;;
10725;SDS011;5414;59.782;16.378;2023-04-15T11:37:04;3.40;;;3.10;;
10725;SDS011;5414;59.782;16.378;2023-04-15T11:39:30;3.97;;;2.70;;
10725;SDS011;5414;59.782;16.378;2023-04-15T11:41:56;4.57;;;3.10;;
10725;SDS011;5414;59.782;16.378;2023-04-15T11:44:22;3.27;;;2.57;;
10725;SDS011;5414;59.782;16.378;2023-04-15T11:46:48;3.43;;;3.10;;
10725;SDS011;5414;59.782;16.378;2023-04-15T11:49:25;3.77;;;2.70;;
10725;SDS011;5414;59.782;16.378;2023-04-15T11:51:51;4.40;;;2.90;;
10725;SDS011;5414;59.782;16.378;2023-04-15T11:54:20;5.20;;;3.07;;
10725;SDS011;5414;59.782;16.378;2023-04-15T11:56:49;3.87;;;3.33;;
10725;SDS011;5414;59.782;16.378;2023-04-15T11:59:16;2.90;;;2.67;;
10725;SDS011;5414;59.782;16.378;2023-04-15T12:01:42;3.30;;;2.70;;
10725;SDS011;5414;59.782;16.378;2023-04-15T12:04:14;3.50;;;2.70;;
10725;SDS011;5414;59.782;16.378;2023-04-15T12:06:41;4.30;;;3.30;;
10725;SDS011;5414;59.782;16.378;2023-04-15T12:14:15;3.23;;;2.80;;
10725;SDS011;5414;59.782;16.378;2023-04-15T12:16:42;4.00;;;2.80;;
10725;SDS011;5414;59.782;16.378;2023-04-15T12:19:10;2.90;;;2.70;;
10725;SDS011;5414;59.782;16.378;2023-04-15T12:21:37;3.23;;;2.60;;
10725;SDS011;5414;59.782;16.378;2023-04-15T12:24:05;3.10;;;2.70;;
10725;SDS011;5414;59.782;16.378;2023-04-15T12:29:07;3.97;;;3.00;;
10725;SDS011;5414;59.782;16.378;2023-04-15T12:31:36;3.30;;;3.00;;
10725;SDS011;5414;59.782;16.378;2023-04-15T12:34:02;2.90;;;2.63;;
10725;SDS011;5414;59.782;16.378;2023-04-15T12:36:29;3.53;;;2.80;;
10725;SDS011;5414;59.782;16.378;2023-04-15T12:39:00;3.10;;;2.90;;
10725;SDS011;5414;59.782;16.378;2023-04-15T12:41:27;3.60;;;2.70;;
10725;SDS011;5414;59.782;16.378;2023-04-15T12:43:53;3.90;;;2.80;;
10725;SDS011;5414;59.782;16.378;2023-04-15T12:46:19;3.20;;;2.77;;
10725;SDS011;5414;59.782;16.378;2023-04-15T12:48:45;3.63;;;2.90;;
10725;SDS011;5414;59.782;16.378;2023-04-15T12:51:12;2.97;;;2.67;;
10725;SDS011;5414;59.782;16.378;2023-04-15T12:53:38;3.23;;;2.70;;
10725;SDS011;5414;59.782;16.378;2023-04-15T12:56:04;3.80;;;3.40;;
10725;SDS011;5414;59.782;16.378;2023-04-15T12:58:31;3.40;;;3.10;;
10725;SDS011;5414;59.782;16.378;2023-04-15T13:00:57;4.47;;;2.80;;
10725;SDS011;5414;59.782;16.378;2023-04-15T13:03:23;3.53;;;2.80;;
10725;SDS011;5414;59.782;16.378;2023-04-15T13:05:49;3.10;;;2.90;;
10725;SDS011;5414;59.782;16.378;2023-04-15T13:08:16;4.60;;;2.87;;
10725;SDS011;5414;59.782;16.378;2023-04-15T13:10:42;3.97;;;3.07;;
10725;SDS011;5414;59.782;16.378;2023-04-15T13:13:08;3.73;;;2.73;;
10725;SDS011;5414;59.782;16.378;2023-04-15T13:15:34;3.33;;;3.00;;
10725;SDS011;5414;59.782;16.378;2023-04-15T13:18:01;4.17;;;3.00;;
10725;SDS011;5414;59.782;16.378;2023-04-15T13:20:27;3.10;;;2.90;;
10725;SDS011;5414;59.782;16.378;2023-04-15T13:22:53;2.97;;;2.67;;
10725;SDS011;5414;59.782;16.378;2023-04-15T13:25:19;3.27;;;2.90;;
10725;SDS011;5414;59.782;16.378;2023-04-15T13:27:45;3.90;;;2.80;;
10725;SDS011;5414;59.782;16.378;2023-04-15T13:30:12;4.63;;;3.10;;
10725;SDS011;5414;59.782;16.378;2023-04-15T13:32:38;3.53;;;3.20;;
10725;SDS011;5414;59.782;16.378;2023-04-15T13:35:04;3.17;;;2.60;;
10725;SDS011;5414;59.782;16.378;2023-04-15T13:37:30;5.00;;;3.30;;
10725;SDS011;5414;59.782;16.378;2023-04-15T13:39:56;5.00;;;3.00;;
10725;SDS011;5414;59.782;16.378;2023-04-15T13:42:22;5.77;;;3.17;;
10725;SDS011;5414;59.782;16.378;2023-04-15T13:44:49;3.60;;;3.30;;
10725;SDS011;5414;59.782;16.378;2023-04-15T13:47:16;5.40;;;3.27;;
10725;SDS011;5414;59.782;16.378;2023-04-15T13:49:42;3.37;;;3.03;;
10725;SDS011;5414;59.782;16.378;2023-04-15T13:52:08;3.77;;;3.07;;
10725;SDS011;5414;59.782;16.378;2023-04-15T13:54:34;3.50;;;2.90;;
10725;SDS011;5414;59.782;16.378;2023-04-15T13:57:00;4.53;;;3.10;;
10725;SDS011;5414;59.782;16.378;2023-04-15T13:59:26;3.53;;;2.90;;
10725;SDS011;5414;59.782;16.378;2023-04-15T14:01:52;4.57;;;3.00;;
10725;SDS011;5414;59.782;16.378;2023-04-15T14:04:18;4.47;;;3.50;;
10725;SDS011;5414;59.782;16.378;2023-04-15T14:06:44;4.07;;;3.30;;
10725;SDS011;5414;59.782;16.378;2023-04-15T14:09:10;3.57;;;3.10;;
10725;SDS011;5414;59.782;16.378;2023-04-15T14:11:37;5.03;;;3.27;;
10725;SDS011;5414;59.782;16.378;2023-04-15T14:14:03;4.63;;;3.10;;
10725;SDS011;5414;59.782;16.378;2023-04-15T14:16:31;3.50;;;3.17;;
10725;SDS011;5414;59.782;16.378;2023-04-15T14:18:57;4.40;;;3.57;;
10725;SDS011;5414;59.782;16.378;2023-04-15T14:21:23;5.27;;;3.70;;
10725;SDS011;5414;59.782;16.378;2023-04-15T14:23:54;4.27;;;3.10;;
10725;SDS011;5414;59.782;16.378;2023-04-15T14:26:20;4.60;;;3.37;;
10725;SDS011;5414;59.782;16.378;2023-04-15T14:28:46;3.90;;;3.37;;
10725;SDS011;5414;59.782;16.378;2023-04-15T14:31:12;4.00;;;3.47;;
10725;SDS011;5414;59.782;16.378;2023-04-15T14:33:38;4.43;;;3.17;;
10725;SDS011;5414;59.782;16.378;2023-04-15T14:36:05;4.30;;;3.30;;
10725;SDS011;5414;59.782;16.378;2023-04-15T14:38:32;3.37;;;3.07;;
10725;SDS011;5414;59.782;16.378;2023-04-15T14:41:02;4.67;;;3.60;;
10725;SDS011;5414;59.782;16.378;2023-04-15T14:43:28;3.27;;;2.90;;
10725;SDS011;5414;59.782;16.378;2023-04-15T14:45:54;4.87;;;3.50;;
10725;SDS011;5414;59.782;16.378;2023-04-15T14:48:20;3.43;;;3.10;;
10725;SDS011;5414;59.782;16.378;2023-04-15T14:50:46;5.00;;;3.17;;
10725;SDS011;5414;59.782;16.378;2023-04-15T14:53:12;4.07;;;3.33;;
10725;SDS011;5414;59.782;16.378;2023-04-15T14:55:38;3.93;;;3.50;;
10725;SDS011;5414;59.782;16.378;2023-04-15T14:58:05;4.30;;;3.30;;